Terminal Aerodrome Forecast
Issued by NWS Twin Cities, MN

Home | Current Version | Previous Version | Text Only | Print | Product List | Glossary Off
Versions: 1 2 3 4 5 6 7 8 9 10 11 12 13 14 15 16 17 18 19 20 21

206
FTUS43 KMPX 201919 AAA
TAFSTC
TAF AMD
KSTC 201919Z 2019/2118 13009KT 3SM -RA BR SCT005 OVC009
      TEMPO 2019/2022 1SM -RA BR OVC005
     FM202200 19009KT 3SM -RA BR BKN006 OVC020
     FM210200 27011KT P6SM SCT012 BKN035
     FM210500 28008KT P6SM SKC
     FM211000 23003KT 3SM BR SCT007
     FM211400 18007KT P6SM SCT250=

USA.gov is the U.S. government's official web portal to all federal, state and local government web resources and services.